sensor_id;sensor_type;location;lat;lon;timestamp;P1;durP1;ratioP1;P2;durP2;ratioP2
66830;SDS011;53739;44.224;22.528;2022-07-18T00:01:55;10.38;;;2.53;;
66830;SDS011;53739;44.224;22.528;2022-07-18T00:04:22;3.05;;;1.85;;
66830;SDS011;53739;44.224;22.528;2022-07-18T00:06:48;3.45;;;1.90;;
66830;SDS011;53739;44.224;22.528;2022-07-18T00:09:14;4.30;;;2.38;;
66830;SDS011;53739;44.224;22.528;2022-07-18T00:11:39;7.38;;;2.63;;
66830;SDS011;53739;44.224;22.528;2022-07-18T00:14:05;6.47;;;2.58;;
66830;SDS011;53739;44.224;22.528;2022-07-18T00:16:31;6.32;;;2.67;;
66830;SDS011;53739;44.224;22.528;2022-07-18T00:18:57;4.30;;;2.20;;
66830;SDS011;53739;44.224;22.528;2022-07-18T00:21:25;5.53;;;2.70;;
66830;SDS011;53739;44.224;22.528;2022-07-18T00:23:51;6.10;;;2.60;;
66830;SDS011;53739;44.224;22.528;2022-07-18T00:26:17;5.40;;;2.55;;
66830;SDS011;53739;44.224;22.528;2022-07-18T00:28:43;4.63;;;1.80;;
66830;SDS011;53739;44.224;22.528;2022-07-18T00:31:09;5.32;;;1.90;;
66830;SDS011;53739;44.224;22.528;2022-07-18T00:33:34;7.43;;;2.67;;
66830;SDS011;53739;44.224;22.528;2022-07-18T00:36:00;5.50;;;1.98;;
66830;SDS011;53739;44.224;22.528;2022-07-18T00:38:26;4.93;;;2.22;;
66830;SDS011;53739;44.224;22.528;2022-07-18T00:40:52;4.85;;;1.92;;
66830;SDS011;53739;44.224;22.528;2022-07-18T00:43:18;4.75;;;2.60;;
66830;SDS011;53739;44.224;22.528;2022-07-18T00:45:44;3.90;;;2.00;;
66830;SDS011;53739;44.224;22.528;2022-07-18T00:48:11;6.25;;;2.08;;
66830;SDS011;53739;44.224;22.528;2022-07-18T00:50:37;3.50;;;2.05;;
66830;SDS011;53739;44.224;22.528;2022-07-18T00:53:04;4.50;;;2.10;;
66830;SDS011;53739;44.224;22.528;2022-07-18T00:55:30;5.65;;;2.40;;
66830;SDS011;53739;44.224;22.528;2022-07-18T00:57:57;6.72;;;2.53;;
66830;SDS011;53739;44.224;22.528;2022-07-18T01:00:24;4.53;;;2.03;;
66830;SDS011;53739;44.224;22.528;2022-07-18T01:03:16;5.63;;;2.47;;
66830;SDS011;53739;44.224;22.528;2022-07-18T01:05:42;4.60;;;2.20;;
66830;SDS011;53739;44.224;22.528;2022-07-18T01:08:08;4.22;;;2.20;;
66830;SDS011;53739;44.224;22.528;2022-07-18T01:10:34;4.28;;;2.30;;
66830;SDS011;53739;44.224;22.528;2022-07-18T01:13:00;4.50;;;2.05;;
66830;SDS011;53739;44.224;22.528;2022-07-18T01:15:26;5.75;;;2.20;;
66830;SDS011;53739;44.224;22.528;2022-07-18T01:17:52;10.65;;;2.30;;
66830;SDS011;53739;44.224;22.528;2022-07-18T01:20:17;4.80;;;2.40;;
66830;SDS011;53739;44.224;22.528;2022-07-18T01:22:43;8.35;;;2.20;;
66830;SDS011;53739;44.224;22.528;2022-07-18T01:25:09;7.05;;;2.20;;
66830;SDS011;53739;44.224;22.528;2022-07-18T01:27:36;4.30;;;2.25;;
66830;SDS011;53739;44.224;22.528;2022-07-18T01:30:02;13.95;;;2.70;;
66830;SDS011;53739;44.224;22.528;2022-07-18T01:32:29;8.70;;;2.85;;
66830;SDS011;53739;44.224;22.528;2022-07-18T01:34:55;12.85;;;4.43;;
66830;SDS011;53739;44.224;22.528;2022-07-18T01:37:21;22.50;;;7.97;;
66830;SDS011;53739;44.224;22.528;2022-07-18T01:39:47;15.15;;;5.53;;
66830;SDS011;53739;44.224;22.528;2022-07-18T01:42:13;9.98;;;4.18;;
66830;SDS011;53739;44.224;22.528;2022-07-18T01:44:40;8.75;;;3.55;;
66830;SDS011;53739;44.224;22.528;2022-07-18T01:47:07;5.90;;;2.80;;
66830;SDS011;53739;44.224;22.528;2022-07-18T01:49:34;7.47;;;2.88;;
66830;SDS011;53739;44.224;22.528;2022-07-18T01:52:01;7.53;;;3.03;;
66830;SDS011;53739;44.224;22.528;2022-07-18T01:54:28;7.15;;;2.47;;
66830;SDS011;53739;44.224;22.528;2022-07-18T01:56:56;5.20;;;2.50;;
66830;SDS011;53739;44.224;22.528;2022-07-18T01:59:22;6.45;;;2.47;;
66830;SDS011;53739;44.224;22.528;2022-07-18T02:01:49;6.22;;;2.38;;
66830;SDS011;53739;44.224;22.528;2022-07-18T02:04:15;4.35;;;2.22;;
66830;SDS011;53739;44.224;22.528;2022-07-18T02:06:42;5.53;;;1.90;;
66830;SDS011;53739;44.224;22.528;2022-07-18T02:09:08;5.82;;;2.63;;
66830;SDS011;53739;44.224;22.528;2022-07-18T02:11:34;6.18;;;3.28;;
66830;SDS011;53739;44.224;22.528;2022-07-18T02:14:01;4.47;;;3.00;;
66830;SDS011;53739;44.224;22.528;2022-07-18T02:16:28;3.53;;;2.30;;
66830;SDS011;53739;44.224;22.528;2022-07-18T02:18:54;8.02;;;2.88;;
66830;SDS011;53739;44.224;22.528;2022-07-18T02:21:21;3.88;;;2.35;;
66830;SDS011;53739;44.224;22.528;2022-07-18T02:23:47;6.47;;;2.33;;
66830;SDS011;53739;44.224;22.528;2022-07-18T02:26:13;6.55;;;2.20;;
66830;SDS011;53739;44.224;22.528;2022-07-18T02:28:39;4.57;;;2.20;;
66830;SDS011;53739;44.224;22.528;2022-07-18T02:31:05;11.98;;;3.65;;
66830;SDS011;53739;44.224;22.528;2022-07-18T02:33:31;11.05;;;4.05;;
66830;SDS011;53739;44.224;22.528;2022-07-18T02:35:57;8.32;;;2.60;;
66830;SDS011;53739;44.224;22.528;2022-07-18T02:38:23;5.85;;;2.53;;
66830;SDS011;53739;44.224;22.528;2022-07-18T02:40:49;5.32;;;2.10;;
66830;SDS011;53739;44.224;22.528;2022-07-18T02:43:16;5.60;;;2.65;;
66830;SDS011;53739;44.224;22.528;2022-07-18T02:45:42;5.18;;;2.20;;
66830;SDS011;53739;44.224;22.528;2022-07-18T02:48:08;4.93;;;1.85;;
66830;SDS011;53739;44.224;22.528;2022-07-18T02:50:34;4.63;;;2.30;;
66830;SDS011;53739;44.224;22.528;2022-07-18T02:53:00;7.20;;;2.40;;
66830;SDS011;53739;44.224;22.528;2022-07-18T02:55:26;6.28;;;2.45;;
66830;SDS011;53739;44.224;22.528;2022-07-18T02:57:51;16.70;;;3.55;;
66830;SDS011;53739;44.224;22.528;2022-07-18T03:00:17;8.20;;;2.97;;
66830;SDS011;53739;44.224;22.528;2022-07-18T03:02:44;10.25;;;2.72;;
66830;SDS011;53739;44.224;22.528;2022-07-18T03:05:10;7.00;;;2.40;;
66830;SDS011;53739;44.224;22.528;2022-07-18T03:07:37;12.23;;;3.85;;
66830;SDS011;53739;44.224;22.528;2022-07-18T03:10:03;11.50;;;4.68;;
66830;SDS011;53739;44.224;22.528;2022-07-18T03:12:30;13.30;;;4.57;;
66830;SDS011;53739;44.224;22.528;2022-07-18T03:14:56;15.63;;;3.60;;
66830;SDS011;53739;44.224;22.528;2022-07-18T03:17:21;10.45;;;3.25;;
66830;SDS011;53739;44.224;22.528;2022-07-18T03:19:47;23.05;;;5.93;;
66830;SDS011;53739;44.224;22.528;2022-07-18T03:22:13;17.02;;;5.15;;
66830;SDS011;53739;44.224;22.528;2022-07-18T03:24:39;19.55;;;4.40;;
66830;SDS011;53739;44.224;22.528;2022-07-18T03:27:05;8.32;;;3.80;;
66830;SDS011;53739;44.224;22.528;2022-07-18T03:29:31;12.50;;;4.50;;
66830;SDS011;53739;44.224;22.528;2022-07-18T03:31:56;9.57;;;3.85;;
66830;SDS011;53739;44.224;22.528;2022-07-18T03:34:22;10.20;;;3.58;;
66830;SDS011;53739;44.224;22.528;2022-07-18T03:36:48;9.98;;;2.88;;
66830;SDS011;53739;44.224;22.528;2022-07-18T03:39:14;7.13;;;3.20;;
66830;SDS011;53739;44.224;22.528;2022-07-18T03:41:40;7.65;;;3.05;;
66830;SDS011;53739;44.224;22.528;2022-07-18T03:44:06;6.22;;;2.65;;
66830;SDS011;53739;44.224;22.528;2022-07-18T03:46:32;6.50;;;2.78;;
66830;SDS011;53739;44.224;22.528;2022-07-18T03:48:58;6.07;;;2.55;;
66830;SDS011;53739;44.224;22.528;2022-07-18T03:51:24;6.65;;;2.70;;
66830;SDS011;53739;44.224;22.528;2022-07-18T03:53:50;11.40;;;3.60;;
66830;SDS011;53739;44.224;22.528;2022-07-18T03:56:16;15.20;;;4.07;;
66830;SDS011;53739;44.224;22.528;2022-07-18T03:58:42;6.35;;;2.63;;
66830;SDS011;53739;44.224;22.528;2022-07-18T04:01:08;25.00;;;2.95;;
66830;SDS011;53739;44.224;22.528;2022-07-18T04:03:34;5.97;;;3.03;;
66830;SDS011;53739;44.224;22.528;2022-07-18T04:06:00;8.15;;;2.50;;
66830;SDS011;53739;44.224;22.528;2022-07-18T04:08:26;7.82;;;2.65;;
66830;SDS011;53739;44.224;22.528;2022-07-18T04:10:52;9.65;;;2.15;;
66830;SDS011;53739;44.224;22.528;2022-07-18T04:13:18;6.15;;;2.88;;
66830;SDS011;53739;44.224;22.528;2022-07-18T04:15:44;9.90;;;2.90;;
66830;SDS011;53739;44.224;22.528;2022-07-18T04:18:10;9.75;;;3.25;;
66830;SDS011;53739;44.224;22.528;2022-07-18T04:20:36;7.93;;;3.70;;
66830;SDS011;53739;44.224;22.528;2022-07-18T04:23:04;12.27;;;3.75;;
66830;SDS011;53739;44.224;22.528;2022-07-18T04:25:38;9.52;;;3.03;;
66830;SDS011;53739;44.224;22.528;2022-07-18T04:28:06;9.40;;;3.08;;
66830;SDS011;53739;44.224;22.528;2022-07-18T04:30:33;6.50;;;2.72;;
66830;SDS011;53739;44.224;22.528;2022-07-18T04:33:02;11.18;;;3.92;;
66830;SDS011;53739;44.224;22.528;2022-07-18T04:35:29;8.75;;;3.88;;
66830;SDS011;53739;44.224;22.528;2022-07-18T04:37:55;7.70;;;3.33;;
66830;SDS011;53739;44.224;22.528;2022-07-18T04:40:21;13.90;;;4.20;;
66830;SDS011;53739;44.224;22.528;2022-07-18T04:42:47;12.18;;;3.80;;
66830;SDS011;53739;44.224;22.528;2022-07-18T04:45:13;15.30;;;5.00;;
66830;SDS011;53739;44.224;22.528;2022-07-18T04:47:41;12.00;;;4.63;;
66830;SDS011;53739;44.224;22.528;2022-07-18T04:50:07;11.50;;;3.72;;
66830;SDS011;53739;44.224;22.528;2022-07-18T04:52:37;10.57;;;3.65;;
66830;SDS011;53739;44.224;22.528;2022-07-18T04:55:09;10.18;;;3.80;;
66830;SDS011;53739;44.224;22.528;2022-07-18T04:57:35;9.75;;;3.45;;
66830;SDS011;53739;44.224;22.528;2022-07-18T05:00:06;8.60;;;3.42;;
66830;SDS011;53739;44.224;22.528;2022-07-18T05:02:34;11.40;;;4.07;;
66830;SDS011;53739;44.224;22.528;2022-07-18T05:05:00;15.02;;;3.72;;
66830;SDS011;53739;44.224;22.528;2022-07-18T05:07:31;12.73;;;3.63;;
66830;SDS011;53739;44.224;22.528;2022-07-18T05:10:07;13.15;;;3.17;;
66830;SDS011;53739;44.224;22.528;2022-07-18T05:12:38;5.03;;;3.25;;
66830;SDS011;53739;44.224;22.528;2022-07-18T05:15:11;7.10;;;3.30;;
66830;SDS011;53739;44.224;22.528;2022-07-18T05:17:48;9.63;;;3.22;;
66830;SDS011;53739;44.224;22.528;2022-07-18T05:20:19;8.20;;;3.17;;
66830;SDS011;53739;44.224;22.528;2022-07-18T05:22:47;8.38;;;3.15;;
66830;SDS011;53739;44.224;22.528;2022-07-18T05:25:13;8.35;;;4.22;;
66830;SDS011;53739;44.224;22.528;2022-07-18T05:27:42;5.65;;;3.20;;
66830;SDS011;53739;44.224;22.528;2022-07-18T05:30:12;7.45;;;3.67;;
66830;SDS011;53739;44.224;22.528;2022-07-18T05:32:39;10.60;;;3.83;;
66830;SDS011;53739;44.224;22.528;2022-07-18T05:35:06;6.35;;;3.22;;
66830;SDS011;53739;44.224;22.528;2022-07-18T05:37:33;8.43;;;3.88;;
66830;SDS011;53739;44.224;22.528;2022-07-18T05:40:07;11.57;;;3.65;;
66830;SDS011;53739;44.224;22.528;2022-07-18T05:42:34;9.00;;;3.50;;
66830;SDS011;53739;44.224;22.528;2022-07-18T05:45:01;6.45;;;3.65;;
66830;SDS011;53739;44.224;22.528;2022-07-18T05:47:27;6.38;;;3.60;;
66830;SDS011;53739;44.224;22.528;2022-07-18T05:49:53;7.78;;;3.60;;
66830;SDS011;53739;44.224;22.528;2022-07-18T05:52:19;9.90;;;3.10;;
66830;SDS011;53739;44.224;22.528;2022-07-18T05:54:45;6.13;;;3.20;;
66830;SDS011;53739;44.224;22.528;2022-07-18T05:57:11;11.77;;;3.17;;
66830;SDS011;53739;44.224;22.528;2022-07-18T05:59:36;9.73;;;3.47;;
66830;SDS011;53739;44.224;22.528;2022-07-18T06:02:02;8.20;;;3.35;;
66830;SDS011;53739;44.224;22.528;2022-07-18T06:04:28;5.65;;;3.08;;
66830;SDS011;53739;44.224;22.528;2022-07-18T06:06:54;6.43;;;3.45;;
66830;SDS011;53739;44.224;22.528;2022-07-18T06:09:20;5.40;;;3.08;;
66830;SDS011;53739;44.224;22.528;2022-07-18T06:11:46;5.40;;;2.60;;
66830;SDS011;53739;44.224;22.528;2022-07-18T06:14:12;7.15;;;2.90;;
66830;SDS011;53739;44.224;22.528;2022-07-18T06:16:40;7.90;;;2.72;;
66830;SDS011;53739;44.224;22.528;2022-07-18T06:19:14;7.45;;;2.92;;
66830;SDS011;53739;44.224;22.528;2022-07-18T06:21:40;5.25;;;2.80;;
66830;SDS011;53739;44.224;22.528;2022-07-18T06:24:09;6.72;;;2.90;;
66830;SDS011;53739;44.224;22.528;2022-07-18T06:26:34;10.70;;;3.17;;
66830;SDS011;53739;44.224;22.528;2022-07-18T06:32:50;11.27;;;3.03;;
66830;SDS011;53739;44.224;22.528;2022-07-18T06:35:16;9.55;;;3.10;;
66830;SDS011;53739;44.224;22.528;2022-07-18T06:37:42;7.28;;;2.90;;
66830;SDS011;53739;44.224;22.528;2022-07-18T06:40:09;9.27;;;2.60;;
66830;SDS011;53739;44.224;22.528;2022-07-18T06:45:31;5.03;;;2.55;;
66830;SDS011;53739;44.224;22.528;2022-07-18T06:48:10;6.50;;;2.60;;
66830;SDS011;53739;44.224;22.528;2022-07-18T06:51:09;6.50;;;2.65;;
66830;SDS011;53739;44.224;22.528;2022-07-18T06:53:35;7.70;;;2.80;;
66830;SDS011;53739;44.224;22.528;2022-07-18T06:56:01;7.43;;;3.08;;
66830;SDS011;53739;44.224;22.528;2022-07-18T06:59:10;8.30;;;2.70;;
66830;SDS011;53739;44.224;22.528;2022-07-18T07:04:56;6.18;;;2.60;;
66830;SDS011;53739;44.224;22.528;2022-07-18T07:07:22;9.18;;;2.65;;
66830;SDS011;53739;44.224;22.528;2022-07-18T07:09:54;6.30;;;2.95;;
66830;SDS011;53739;44.224;22.528;2022-07-18T07:12:22;6.00;;;2.38;;
66830;SDS011;53739;44.224;22.528;2022-07-18T07:15:00;9.52;;;3.38;;
66830;SDS011;53739;44.224;22.528;2022-07-18T07:17:30;7.63;;;3.72;;
66830;SDS011;53739;44.224;22.528;2022-07-18T07:19:59;11.55;;;4.22;;
66830;SDS011;53739;44.224;22.528;2022-07-18T07:22:41;10.27;;;4.45;;
66830;SDS011;53739;44.224;22.528;2022-07-18T07:25:36;12.32;;;4.60;;
66830;SDS011;53739;44.224;22.528;2022-07-18T07:32:10;13.45;;;4.55;;
66830;SDS011;53739;44.224;22.528;2022-07-18T07:57:57;6.00;;;2.10;;
66830;SDS011;53739;44.224;22.528;2022-07-18T08:00:39;10.07;;;2.80;;
66830;SDS011;53739;44.224;22.528;2022-07-18T08:03:19;5.78;;;2.10;;
66830;SDS011;53739;44.224;22.528;2022-07-18T08:05:48;6.15;;;2.33;;
66830;SDS011;53739;44.224;22.528;2022-07-18T08:08:21;9.25;;;2.25;;
66830;SDS011;53739;44.224;22.528;2022-07-18T08:14:05;6.18;;;2.17;;
66830;SDS011;53739;44.224;22.528;2022-07-18T08:16:30;6.22;;;2.20;;
66830;SDS011;53739;44.224;22.528;2022-07-18T08:18:56;6.13;;;1.90;;
66830;SDS011;53739;44.224;22.528;2022-07-18T08:21:25;4.78;;;1.90;;
66830;SDS011;53739;44.224;22.528;2022-07-18T08:23:59;6.65;;;2.10;;
66830;SDS011;53739;44.224;22.528;2022-07-18T08:32:42;3.22;;;1.95;;
66830;SDS011;53739;44.224;22.528;2022-07-18T08:38:24;6.93;;;2.50;;
66830;SDS011;53739;44.224;22.528;2022-07-18T08:41:25;8.90;;;3.03;;
66830;SDS011;53739;44.224;22.528;2022-07-18T08:47:03;4.07;;;2.00;;
66830;SDS011;53739;44.224;22.528;2022-07-18T08:56:28;4.80;;;1.98;;
66830;SDS011;53739;44.224;22.528;2022-07-18T08:58:54;5.72;;;1.95;;
66830;SDS011;53739;44.224;22.528;2022-07-18T09:01:43;6.72;;;2.00;;
66830;SDS011;53739;44.224;22.528;2022-07-18T09:04:09;3.10;;;1.98;;
66830;SDS011;53739;44.224;22.528;2022-07-18T09:06:58;6.05;;;1.80;;
66830;SDS011;53739;44.224;22.528;2022-07-18T09:09:32;4.57;;;1.88;;
66830;SDS011;53739;44.224;22.528;2022-07-18T09:11:59;3.47;;;1.60;;
66830;SDS011;53739;44.224;22.528;2022-07-18T09:14:33;7.03;;;1.63;;
66830;SDS011;53739;44.224;22.528;2022-07-18T09:23:12;3.90;;;1.98;;
66830;SDS011;53739;44.224;22.528;2022-07-18T09:25:57;5.03;;;1.73;;
66830;SDS011;53739;44.224;22.528;2022-07-18T09:32:11;5.57;;;1.90;;
66830;SDS011;53739;44.224;22.528;2022-07-18T09:34:47;7.00;;;2.20;;
66830;SDS011;53739;44.224;22.528;2022-07-18T09:37:12;5.65;;;2.33;;
66830;SDS011;53739;44.224;22.528;2022-07-18T09:39:49;5.72;;;2.50;;
66830;SDS011;53739;44.224;22.528;2022-07-18T09:42:22;4.30;;;1.92;;
66830;SDS011;53739;44.224;22.528;2022-07-18T09:45:00;4.47;;;1.95;;
66830;SDS011;53739;44.224;22.528;2022-07-18T09:47:31;5.80;;;1.90;;
66830;SDS011;53739;44.224;22.528;2022-07-18T09:50:06;7.63;;;2.15;;
66830;SDS011;53739;44.224;22.528;2022-07-18T09:52:59;10.27;;;2.65;;
66830;SDS011;53739;44.224;22.528;2022-07-18T09:55:38;4.85;;;2.13;;
66830;SDS011;53739;44.224;22.528;2022-07-18T09:58:15;5.57;;;1.83;;
66830;SDS011;53739;44.224;22.528;2022-07-18T10:00:46;4.75;;;2.22;;
66830;SDS011;53739;44.224;22.528;2022-07-18T10:03:16;4.15;;;1.77;;
66830;SDS011;53739;44.224;22.528;2022-07-18T10:05:43;4.30;;;2.20;;
66830;SDS011;53739;44.224;22.528;2022-07-18T10:08:12;3.47;;;1.95;;
66830;SDS011;53739;44.224;22.528;2022-07-18T10:10:40;4.35;;;1.90;;
66830;SDS011;53739;44.224;22.528;2022-07-18T10:13:10;3.40;;;1.95;;
66830;SDS011;53739;44.224;22.528;2022-07-18T10:15:38;5.03;;;2.40;;
66830;SDS011;53739;44.224;22.528;2022-07-18T10:18:06;4.80;;;2.20;;
66830;SDS011;53739;44.224;22.528;2022-07-18T10:23:35;5.20;;;2.00;;
66830;SDS011;53739;44.224;22.528;2022-07-18T10:31:33;3.55;;;2.00;;
66830;SDS011;53739;44.224;22.528;2022-07-18T10:36:36;3.95;;;2.20;;
66830;SDS011;53739;44.224;22.528;2022-07-18T11:13:24;7.53;;;2.30;;
66830;SDS011;53739;44.224;22.528;2022-07-18T11:18:28;4.78;;;2.42;;
66830;SDS011;53739;44.224;22.528;2022-07-18T11:20:59;5.47;;;2.75;;
66830;SDS011;53739;44.224;22.528;2022-07-18T11:23:26;7.90;;;2.40;;
66830;SDS011;53739;44.224;22.528;2022-07-18T11:26:01;3.88;;;2.63;;
66830;SDS011;53739;44.224;22.528;2022-07-18T11:28:27;5.55;;;3.00;;
66830;SDS011;53739;44.224;22.528;2022-07-18T11:33:59;5.70;;;2.72;;
66830;SDS011;53739;44.224;22.528;2022-07-18T11:36:30;5.53;;;2.38;;
66830;SDS011;53739;44.224;22.528;2022-07-18T11:38:59;4.95;;;2.33;;
66830;SDS011;53739;44.224;22.528;2022-07-18T11:41:26;6.15;;;2.67;;
66830;SDS011;53739;44.224;22.528;2022-07-18T11:43:54;7.78;;;2.53;;
66830;SDS011;53739;44.224;22.528;2022-07-18T11:46:21;5.13;;;2.15;;
66830;SDS011;53739;44.224;22.528;2022-07-18T11:48:56;5.13;;;2.33;;
66830;SDS011;53739;44.224;22.528;2022-07-18T11:51:24;4.10;;;2.33;;
66830;SDS011;53739;44.224;22.528;2022-07-18T11:53:53;4.32;;;2.17;;
66830;SDS011;53739;44.224;22.528;2022-07-18T11:56:22;9.98;;;2.47;;
66830;SDS011;53739;44.224;22.528;2022-07-18T11:58:53;8.70;;;2.40;;
66830;SDS011;53739;44.224;22.528;2022-07-18T12:01:29;4.07;;;2.60;;
66830;SDS011;53739;44.224;22.528;2022-07-18T12:03:59;7.93;;;2.40;;
66830;SDS011;53739;44.224;22.528;2022-07-18T12:06:43;4.63;;;2.10;;
66830;SDS011;53739;44.224;22.528;2022-07-18T12:09:22;4.82;;;2.83;;
66830;SDS011;53739;44.224;22.528;2022-07-18T12:17:30;7.57;;;3.28;;
66830;SDS011;53739;44.224;22.528;2022-07-18T12:20:22;6.88;;;2.50;;
66830;SDS011;53739;44.224;22.528;2022-07-18T12:23:09;5.88;;;2.88;;
66830;SDS011;53739;44.224;22.528;2022-07-18T12:25:38;3.83;;;2.03;;
66830;SDS011;53739;44.224;22.528;2022-07-18T12:31:41;7.32;;;2.42;;
66830;SDS011;53739;44.224;22.528;2022-07-18T12:36:49;5.35;;;2.30;;
66830;SDS011;53739;44.224;22.528;2022-07-18T12:39:29;7.07;;;2.42;;
66830;SDS011;53739;44.224;22.528;2022-07-18T12:42:05;5.75;;;2.33;;
66830;SDS011;53739;44.224;22.528;2022-07-18T12:44:34;4.25;;;2.13;;
66830;SDS011;53739;44.224;22.528;2022-07-18T12:46:59;3.90;;;2.20;;
66830;SDS011;53739;44.224;22.528;2022-07-18T12:49:38;6.07;;;2.40;;
66830;SDS011;53739;44.224;22.528;2022-07-18T12:52:08;5.18;;;2.45;;
66830;SDS011;53739;44.224;22.528;2022-07-18T12:54:34;5.18;;;2.28;;
66830;SDS011;53739;44.224;22.528;2022-07-18T12:57:00;3.35;;;2.40;;
66830;SDS011;53739;44.224;22.528;2022-07-18T12:59:29;6.95;;;2.72;;
66830;SDS011;53739;44.224;22.528;2022-07-18T13:02:14;4.78;;;2.15;;
66830;SDS011;53739;44.224;22.528;2022-07-18T13:05:12;5.80;;;2.30;;
66830;SDS011;53739;44.224;22.528;2022-07-18T13:07:38;5.90;;;2.28;;
66830;SDS011;53739;44.224;22.528;2022-07-18T13:10:10;5.43;;;2.65;;
66830;SDS011;53739;44.224;22.528;2022-07-18T13:12:36;6.13;;;2.63;;
66830;SDS011;53739;44.224;22.528;2022-07-18T13:15:09;6.60;;;2.25;;
66830;SDS011;53739;44.224;22.528;2022-07-18T13:17:38;19.20;;;2.92;;
66830;SDS011;53739;44.224;22.528;2022-07-18T13:20:07;4.57;;;2.58;;
66830;SDS011;53739;44.224;22.528;2022-07-18T13:22:41;8.95;;;3.47;;
66830;SDS011;53739;44.224;22.528;2022-07-18T13:25:07;7.03;;;2.58;;
66830;SDS011;53739;44.224;22.528;2022-07-18T13:27:43;6.45;;;2.40;;
66830;SDS011;53739;44.224;22.528;2022-07-18T13:30:16;5.72;;;2.83;;
66830;SDS011;53739;44.224;22.528;2022-07-18T13:32:42;5.07;;;2.40;;
66830;SDS011;53739;44.224;22.528;2022-07-18T13:35:10;9.50;;;2.70;;
66830;SDS011;53739;44.224;22.528;2022-07-18T13:37:44;7.63;;;2.60;;
66830;SDS011;53739;44.224;22.528;2022-07-18T13:40:10;4.32;;;2.17;;
66830;SDS011;53739;44.224;22.528;2022-07-18T13:42:37;4.50;;;2.50;;
66830;SDS011;53739;44.224;22.528;2022-07-18T13:45:03;7.40;;;2.97;;
66830;SDS011;53739;44.224;22.528;2022-07-18T13:47:38;4.05;;;2.30;;
66830;SDS011;53739;44.224;22.528;2022-07-18T13:50:06;4.43;;;2.55;;
66830;SDS011;53739;44.224;22.528;2022-07-18T13:52:35;3.92;;;2.30;;
66830;SDS011;53739;44.224;22.528;2022-07-18T13:55:06;4.78;;;2.60;;
66830;SDS011;53739;44.224;22.528;2022-07-18T13:57:32;10.23;;;2.25;;
66830;SDS011;53739;44.224;22.528;2022-07-18T14:00:01;3.70;;;2.17;;
66830;SDS011;53739;44.224;22.528;2022-07-18T14:02:35;8.27;;;2.30;;
66830;SDS011;53739;44.224;22.528;2022-07-18T14:05:01;8.50;;;2.60;;
66830;SDS011;53739;44.224;22.528;2022-07-18T14:07:33;8.18;;;2.70;;
66830;SDS011;53739;44.224;22.528;2022-07-18T14:10:02;5.28;;;2.53;;
66830;SDS011;53739;44.224;22.528;2022-07-18T14:12:28;5.10;;;2.58;;
66830;SDS011;53739;44.224;22.528;2022-07-18T14:14:54;5.85;;;2.10;;
66830;SDS011;53739;44.224;22.528;2022-07-18T14:17:20;6.63;;;2.72;;
66830;SDS011;53739;44.224;22.528;2022-07-18T14:19:46;4.82;;;2.50;;
66830;SDS011;53739;44.224;22.528;2022-07-18T14:22:12;4.18;;;2.40;;
66830;SDS011;53739;44.224;22.528;2022-07-18T14:24:38;4.70;;;2.38;;
66830;SDS011;53739;44.224;22.528;2022-07-18T14:27:03;4.57;;;2.70;;
66830;SDS011;53739;44.224;22.528;2022-07-18T14:29:29;5.25;;;2.60;;
66830;SDS011;53739;44.224;22.528;2022-07-18T14:31:58;5.90;;;2.60;;
66830;SDS011;53739;44.224;22.528;2022-07-18T14:34:24;4.07;;;2.53;;
66830;SDS011;53739;44.224;22.528;2022-07-18T14:36:50;5.13;;;3.10;;
66830;SDS011;53739;44.224;22.528;2022-07-18T14:39:16;4.97;;;2.70;;
66830;SDS011;53739;44.224;22.528;2022-07-18T14:41:42;6.90;;;3.05;;
66830;SDS011;53739;44.224;22.528;2022-07-18T14:44:08;14.45;;;3.13;;
66830;SDS011;53739;44.224;22.528;2022-07-18T14:46:34;6.07;;;2.83;;
66830;SDS011;53739;44.224;22.528;2022-07-18T14:49:02;5.68;;;2.70;;
66830;SDS011;53739;44.224;22.528;2022-07-18T14:51:28;4.93;;;2.80;;
66830;SDS011;53739;44.224;22.528;2022-07-18T14:53:54;4.72;;;2.97;;
66830;SDS011;53739;44.224;22.528;2022-07-18T14:56:19;5.90;;;2.70;;
66830;SDS011;53739;44.224;22.528;2022-07-18T14:58:45;5.32;;;3.00;;
66830;SDS011;53739;44.224;22.528;2022-07-18T15:01:11;5.82;;;2.63;;
66830;SDS011;53739;44.224;22.528;2022-07-18T15:03:37;4.90;;;2.20;;
66830;SDS011;53739;44.224;22.528;2022-07-18T15:06:03;5.15;;;2.80;;
66830;SDS011;53739;44.224;22.528;2022-07-18T15:08:28;7.28;;;2.13;;
66830;SDS011;53739;44.224;22.528;2022-07-18T15:10:54;5.75;;;2.30;;
66830;SDS011;53739;44.224;22.528;2022-07-18T15:13:20;6.45;;;3.13;;
66830;SDS011;53739;44.224;22.528;2022-07-18T15:15:46;4.05;;;2.50;;
66830;SDS011;53739;44.224;22.528;2022-07-18T15:18:13;5.32;;;2.47;;
66830;SDS011;53739;44.224;22.528;2022-07-18T15:20:39;4.10;;;2.28;;
66830;SDS011;53739;44.224;22.528;2022-07-18T15:23:07;3.80;;;2.25;;
66830;SDS011;53739;44.224;22.528;2022-07-18T15:25:33;5.18;;;2.95;;
66830;SDS011;53739;44.224;22.528;2022-07-18T15:27:59;5.75;;;2.88;;
66830;SDS011;53739;44.224;22.528;2022-07-18T15:30:25;5.60;;;2.53;;
66830;SDS011;53739;44.224;22.528;2022-07-18T15:32:51;6.72;;;2.42;;
66830;SDS011;53739;44.224;22.528;2022-07-18T15:35:18;5.88;;;2.47;;
66830;SDS011;53739;44.224;22.528;2022-07-18T15:37:44;5.47;;;2.88;;
66830;SDS011;53739;44.224;22.528;2022-07-18T15:40:10;8.23;;;3.00;;
66830;SDS011;53739;44.224;22.528;2022-07-18T15:42:36;6.30;;;3.22;;
66830;SDS011;53739;44.224;22.528;2022-07-18T15:45:02;10.73;;;3.20;;
66830;SDS011;53739;44.224;22.528;2022-07-18T15:47:28;6.97;;;2.83;;
66830;SDS011;53739;44.224;22.528;2022-07-18T15:49:54;5.90;;;2.50;;
66830;SDS011;53739;44.224;22.528;2022-07-18T15:52:19;4.93;;;2.83;;
66830;SDS011;53739;44.224;22.528;2022-07-18T15:54:45;6.57;;;3.10;;
66830;SDS011;53739;44.224;22.528;2022-07-18T15:57:11;7.30;;;3.00;;
66830;SDS011;53739;44.224;22.528;2022-07-18T15:59:40;4.25;;;2.65;;
66830;SDS011;53739;44.224;22.528;2022-07-18T16:02:06;4.25;;;2.70;;
66830;SDS011;53739;44.224;22.528;2022-07-18T16:04:33;6.15;;;2.30;;
66830;SDS011;53739;44.224;22.528;2022-07-18T16:06:59;5.80;;;2.45;;
66830;SDS011;53739;44.224;22.528;2022-07-18T16:09:25;10.18;;;2.88;;
66830;SDS011;53739;44.224;22.528;2022-07-18T16:11:51;5.47;;;3.33;;
66830;SDS011;53739;44.224;22.528;2022-07-18T16:14:20;5.32;;;2.53;;
66830;SDS011;53739;44.224;22.528;2022-07-18T16:16:46;5.60;;;2.75;;
66830;SDS011;53739;44.224;22.528;2022-07-18T16:19:11;11.85;;;3.28;;
66830;SDS011;53739;44.224;22.528;2022-07-18T16:21:37;10.45;;;2.88;;
66830;SDS011;53739;44.224;22.528;2022-07-18T16:24:03;6.10;;;2.88;;
66830;SDS011;53739;44.224;22.528;2022-07-18T16:26:30;5.82;;;2.90;;
66830;SDS011;53739;44.224;22.528;2022-07-18T16:28:56;7.25;;;3.00;;
66830;SDS011;53739;44.224;22.528;2022-07-18T16:31:21;5.15;;;3.08;;
66830;SDS011;53739;44.224;22.528;2022-07-18T16:33:47;4.35;;;2.63;;
66830;SDS011;53739;44.224;22.528;2022-07-18T16:36:15;5.75;;;2.80;;
66830;SDS011;53739;44.224;22.528;2022-07-18T16:38:41;8.85;;;3.00;;
66830;SDS011;53739;44.224;22.528;2022-07-18T16:41:07;8.55;;;2.90;;
66830;SDS011;53739;44.224;22.528;2022-07-18T16:43:33;10.70;;;2.78;;
66830;SDS011;53739;44.224;22.528;2022-07-18T16:46:00;4.80;;;2.83;;
66830;SDS011;53739;44.224;22.528;2022-07-18T16:48:26;7.20;;;3.00;;
66830;SDS011;53739;44.224;22.528;2022-07-18T16:50:52;4.03;;;2.50;;
66830;SDS011;53739;44.224;22.528;2022-07-18T16:53:19;7.22;;;3.05;;
66830;SDS011;53739;44.224;22.528;2022-07-18T16:55:45;7.90;;;3.30;;